sensor_id;sensor_type;location;lat;lon;timestamp;P1;durP1;ratioP1;P2;durP2;ratioP2
75165;SDS011;63747;48.042;10.088;2023-02-13T00:00:48;76.75;;;27.98;;
75165;SDS011;63747;48.042;10.088;2023-02-13T00:03:49;61.20;;;25.10;;
75165;SDS011;63747;48.042;10.088;2023-02-13T00:06:50;55.73;;;26.73;;
75165;SDS011;63747;48.042;10.088;2023-02-13T00:09:50;45.87;;;25.20;;
75165;SDS011;63747;48.042;10.088;2023-02-13T00:12:51;38.80;;;22.13;;
75165;SDS011;63747;48.042;10.088;2023-02-13T00:15:56;39.77;;;23.63;;
75165;SDS011;63747;48.042;10.088;2023-02-13T00:18:58;42.00;;;24.40;;
75165;SDS011;63747;48.042;10.088;2023-02-13T00:21:58;54.27;;;25.57;;
75165;SDS011;63747;48.042;10.088;2023-02-13T00:24:59;40.07;;;23.33;;
75165;SDS011;63747;48.042;10.088;2023-02-13T00:28:00;44.53;;;23.57;;
75165;SDS011;63747;48.042;10.088;2023-02-13T00:31:01;47.00;;;23.00;;
75165;SDS011;63747;48.042;10.088;2023-02-13T00:34:05;60.05;;;24.90;;
75165;SDS011;63747;48.042;10.088;2023-02-13T00:37:05;55.67;;;26.40;;
75165;SDS011;63747;48.042;10.088;2023-02-13T00:40:06;54.50;;;25.03;;
75165;SDS011;63747;48.042;10.088;2023-02-13T00:43:07;53.38;;;25.10;;
75165;SDS011;63747;48.042;10.088;2023-02-13T00:46:09;63.23;;;26.43;;
75165;SDS011;63747;48.042;10.088;2023-02-13T00:52:10;49.97;;;23.35;;
75165;SDS011;63747;48.042;10.088;2023-02-13T00:55:11;68.73;;;27.53;;
75165;SDS011;63747;48.042;10.088;2023-02-13T00:58:12;61.07;;;25.77;;
75165;SDS011;63747;48.042;10.088;2023-02-13T01:01:13;73.03;;;27.27;;
75165;SDS011;63747;48.042;10.088;2023-02-13T01:04:13;60.40;;;25.60;;
75165;SDS011;63747;48.042;10.088;2023-02-13T01:07:14;65.80;;;26.50;;
75165;SDS011;63747;48.042;10.088;2023-02-13T01:10:15;69.90;;;25.73;;
75165;SDS011;63747;48.042;10.088;2023-02-13T01:13:16;69.30;;;26.60;;
75165;SDS011;63747;48.042;10.088;2023-02-13T01:16:17;89.72;;;28.05;;
75165;SDS011;63747;48.042;10.088;2023-02-13T01:19:18;82.03;;;28.13;;
75165;SDS011;63747;48.042;10.088;2023-02-13T01:22:19;74.80;;;27.30;;
75165;SDS011;63747;48.042;10.088;2023-02-13T01:25:19;55.23;;;25.40;;
75165;SDS011;63747;48.042;10.088;2023-02-13T01:28:20;54.05;;;25.52;;
75165;SDS011;63747;48.042;10.088;2023-02-13T01:31:21;60.57;;;25.67;;
75165;SDS011;63747;48.042;10.088;2023-02-13T01:34:22;70.50;;;27.27;;
75165;SDS011;63747;48.042;10.088;2023-02-13T01:37:22;56.97;;;25.67;;
75165;SDS011;63747;48.042;10.088;2023-02-13T01:40:23;55.80;;;25.93;;
75165;SDS011;63747;48.042;10.088;2023-02-13T01:43:24;60.60;;;26.23;;
75165;SDS011;63747;48.042;10.088;2023-02-13T01:46:42;60.63;;;27.42;;
75165;SDS011;63747;48.042;10.088;2023-02-13T01:49:43;66.03;;;27.23;;
75165;SDS011;63747;48.042;10.088;2023-02-13T01:52:49;72.03;;;26.80;;
75165;SDS011;63747;48.042;10.088;2023-02-13T02:02:52;52.42;;;25.50;;
75165;SDS011;63747;48.042;10.088;2023-02-13T02:05:56;50.58;;;25.38;;
75165;SDS011;63747;48.042;10.088;2023-02-13T02:09:00;68.68;;;27.45;;
75165;SDS011;63747;48.042;10.088;2023-02-13T02:15:12;47.90;;;25.08;;
75165;SDS011;63747;48.042;10.088;2023-02-13T02:18:14;64.37;;;25.43;;
75165;SDS011;63747;48.042;10.088;2023-02-13T02:38:16;58.25;;;25.60;;
75165;SDS011;63747;48.042;10.088;2023-02-13T02:45:18;66.95;;;26.77;;
75165;SDS011;63747;48.042;10.088;2023-02-13T02:48:21;46.20;;;24.80;;
75165;SDS011;63747;48.042;10.088;2023-02-13T02:55:19;38.72;;;22.60;;
75165;SDS011;63747;48.042;10.088;2023-02-13T02:58:36;49.17;;;25.80;;
75165;SDS011;63747;48.042;10.088;2023-02-13T03:02:01;51.03;;;24.80;;
75165;SDS011;63747;48.042;10.088;2023-02-13T03:05:26;50.60;;;25.67;;
75165;SDS011;63747;48.042;10.088;2023-02-13T03:08:53;45.13;;;24.98;;
75165;SDS011;63747;48.042;10.088;2023-02-13T03:12:16;44.33;;;24.05;;
75165;SDS011;63747;48.042;10.088;2023-02-13T03:15:39;36.47;;;22.38;;
75165;SDS011;63747;48.042;10.088;2023-02-13T03:19:03;37.72;;;22.58;;
75165;SDS011;63747;48.042;10.088;2023-02-13T03:22:28;37.25;;;22.55;;
75165;SDS011;63747;48.042;10.088;2023-02-13T03:25:38;35.35;;;22.58;;
75165;SDS011;63747;48.042;10.088;2023-02-13T03:29:11;47.03;;;25.13;;
75165;SDS011;63747;48.042;10.088;2023-02-13T03:32:41;35.78;;;22.77;;
75165;SDS011;63747;48.042;10.088;2023-02-13T03:43:04;44.10;;;24.88;;
75165;SDS011;63747;48.042;10.088;2023-02-13T03:46:10;42.25;;;24.45;;
75165;SDS011;63747;48.042;10.088;2023-02-13T03:49:25;45.63;;;24.98;;
75165;SDS011;63747;48.042;10.088;2023-02-13T03:52:54;42.28;;;25.50;;
75165;SDS011;63747;48.042;10.088;2023-02-13T03:56:02;44.72;;;25.67;;
75165;SDS011;63747;48.042;10.088;2023-02-13T03:59:26;42.08;;;25.65;;
75165;SDS011;63747;48.042;10.088;2023-02-13T04:02:32;39.72;;;24.80;;
75165;SDS011;63747;48.042;10.088;2023-02-13T04:05:42;40.17;;;24.58;;
75165;SDS011;63747;48.042;10.088;2023-02-13T04:08:47;37.90;;;25.00;;
75165;SDS011;63747;48.042;10.088;2023-02-13T04:15:18;35.42;;;23.73;;
75165;SDS011;63747;48.042;10.088;2023-02-13T04:18:28;36.53;;;23.70;;
75165;SDS011;63747;48.042;10.088;2023-02-13T04:21:31;38.33;;;24.77;;
75165;SDS011;63747;48.042;10.088;2023-02-13T04:24:33;37.67;;;25.10;;
75165;SDS011;63747;48.042;10.088;2023-02-13T04:27:33;38.97;;;25.23;;
75165;SDS011;63747;48.042;10.088;2023-02-13T04:30:34;36.00;;;23.33;;
75165;SDS011;63747;48.042;10.088;2023-02-13T04:33:35;35.37;;;23.27;;
75165;SDS011;63747;48.042;10.088;2023-02-13T04:36:36;35.20;;;22.97;;
75165;SDS011;63747;48.042;10.088;2023-02-13T04:39:36;39.57;;;23.40;;
75165;SDS011;63747;48.042;10.088;2023-02-13T04:42:37;35.40;;;23.33;;
75165;SDS011;63747;48.042;10.088;2023-02-13T04:45:38;34.00;;;22.87;;
75165;SDS011;63747;48.042;10.088;2023-02-13T04:48:38;35.33;;;22.50;;
75165;SDS011;63747;48.042;10.088;2023-02-13T04:51:39;35.70;;;22.30;;
75165;SDS011;63747;48.042;10.088;2023-02-13T04:54:40;36.67;;;21.67;;
75165;SDS011;63747;48.042;10.088;2023-02-13T04:57:41;31.07;;;22.27;;
75165;SDS011;63747;48.042;10.088;2023-02-13T05:00:42;37.33;;;22.93;;
75165;SDS011;63747;48.042;10.088;2023-02-13T05:03:43;34.95;;;22.58;;
75165;SDS011;63747;48.042;10.088;2023-02-13T05:06:44;34.90;;;23.17;;
75165;SDS011;63747;48.042;10.088;2023-02-13T05:09:44;36.07;;;23.10;;
75165;SDS011;63747;48.042;10.088;2023-02-13T05:12:46;35.63;;;22.10;;
75165;SDS011;63747;48.042;10.088;2023-02-13T05:18:48;31.08;;;20.63;;
75165;SDS011;63747;48.042;10.088;2023-02-13T05:21:49;30.47;;;20.93;;
75165;SDS011;63747;48.042;10.088;2023-02-13T05:25:08;33.78;;;21.02;;
75165;SDS011;63747;48.042;10.088;2023-02-13T05:28:09;35.17;;;21.00;;
75165;SDS011;63747;48.042;10.088;2023-02-13T05:31:28;32.60;;;21.42;;
75165;SDS011;63747;48.042;10.088;2023-02-13T05:34:29;34.23;;;21.77;;
75165;SDS011;63747;48.042;10.088;2023-02-13T05:37:30;32.60;;;22.00;;
75165;SDS011;63747;48.042;10.088;2023-02-13T05:40:31;32.23;;;21.50;;
75165;SDS011;63747;48.042;10.088;2023-02-13T05:43:31;33.57;;;22.57;;
75165;SDS011;63747;48.042;10.088;2023-02-13T05:46:32;37.33;;;23.17;;
75165;SDS011;63747;48.042;10.088;2023-02-13T05:49:33;29.10;;;20.70;;
75165;SDS011;63747;48.042;10.088;2023-02-13T05:52:33;35.17;;;21.47;;
75165;SDS011;63747;48.042;10.088;2023-02-13T05:55:34;37.90;;;21.40;;
75165;SDS011;63747;48.042;10.088;2023-02-13T05:58:35;33.20;;;20.97;;
75165;SDS011;63747;48.042;10.088;2023-02-13T06:01:36;32.60;;;20.48;;
75165;SDS011;63747;48.042;10.088;2023-02-13T06:04:37;43.87;;;21.57;;
75165;SDS011;63747;48.042;10.088;2023-02-13T06:07:40;48.83;;;24.13;;
75165;SDS011;63747;48.042;10.088;2023-02-13T06:10:41;40.57;;;20.70;;
75165;SDS011;63747;48.042;10.088;2023-02-13T06:13:41;36.53;;;21.13;;
75165;SDS011;63747;48.042;10.088;2023-02-13T06:16:42;29.03;;;19.13;;
75165;SDS011;63747;48.042;10.088;2023-02-13T06:19:43;28.73;;;18.83;;
75165;SDS011;63747;48.042;10.088;2023-02-13T06:22:46;28.80;;;18.93;;
75165;SDS011;63747;48.042;10.088;2023-02-13T06:25:48;27.17;;;18.55;;
75165;SDS011;63747;48.042;10.088;2023-02-13T06:28:49;37.40;;;20.93;;
75165;SDS011;63747;48.042;10.088;2023-02-13T06:31:49;39.30;;;21.83;;
75165;SDS011;63747;48.042;10.088;2023-02-13T06:34:50;36.50;;;21.03;;
75165;SDS011;63747;48.042;10.088;2023-02-13T06:37:51;72.13;;;24.47;;
75165;SDS011;63747;48.042;10.088;2023-02-13T06:40:52;45.00;;;21.27;;
75165;SDS011;63747;48.042;10.088;2023-02-13T06:43:52;42.63;;;21.20;;
75165;SDS011;63747;48.042;10.088;2023-02-13T06:46:53;41.90;;;22.20;;
75165;SDS011;63747;48.042;10.088;2023-02-13T06:49:54;35.03;;;20.57;;
75165;SDS011;63747;48.042;10.088;2023-02-13T06:52:54;43.40;;;20.13;;
75165;SDS011;63747;48.042;10.088;2023-02-13T06:55:55;33.23;;;19.60;;
75165;SDS011;63747;48.042;10.088;2023-02-13T06:58:56;36.80;;;19.80;;
75165;SDS011;63747;48.042;10.088;2023-02-13T07:01:57;37.87;;;19.57;;
75165;SDS011;63747;48.042;10.088;2023-02-13T07:04:58;30.93;;;18.93;;
75165;SDS011;63747;48.042;10.088;2023-02-13T07:07:59;29.00;;;20.00;;
75165;SDS011;63747;48.042;10.088;2023-02-13T07:11:00;39.50;;;20.40;;
75165;SDS011;63747;48.042;10.088;2023-02-13T07:14:00;54.40;;;20.73;;
75165;SDS011;63747;48.042;10.088;2023-02-13T07:17:01;46.50;;;21.57;;
75165;SDS011;63747;48.042;10.088;2023-02-13T07:20:02;64.00;;;21.23;;
75165;SDS011;63747;48.042;10.088;2023-02-13T07:26:05;38.58;;;19.05;;
75165;SDS011;63747;48.042;10.088;2023-02-13T07:29:06;28.23;;;19.33;;
75165;SDS011;63747;48.042;10.088;2023-02-13T07:32:07;32.70;;;19.03;;
75165;SDS011;63747;48.042;10.088;2023-02-13T07:35:08;29.07;;;17.80;;
75165;SDS011;63747;48.042;10.088;2023-02-13T07:38:08;36.10;;;18.73;;
75165;SDS011;63747;48.042;10.088;2023-02-13T07:41:09;61.97;;;19.97;;
75165;SDS011;63747;48.042;10.088;2023-02-13T07:44:10;89.97;;;21.00;;
75165;SDS011;63747;48.042;10.088;2023-02-13T07:47:10;58.00;;;19.60;;
75165;SDS011;63747;48.042;10.088;2023-02-13T07:50:11;64.77;;;20.87;;
75165;SDS011;63747;48.042;10.088;2023-02-13T07:53:12;39.50;;;19.85;;
75165;SDS011;63747;48.042;10.088;2023-02-13T07:56:13;40.83;;;18.97;;
75165;SDS011;63747;48.042;10.088;2023-02-13T07:59:14;47.17;;;18.90;;
75165;SDS011;63747;48.042;10.088;2023-02-13T08:02:14;28.93;;;18.43;;
75165;SDS011;63747;48.042;10.088;2023-02-13T08:05:15;68.63;;;20.88;;
75165;SDS011;63747;48.042;10.088;2023-02-13T08:08:16;30.43;;;19.17;;
75165;SDS011;63747;48.042;10.088;2023-02-13T08:11:25;36.60;;;19.63;;
75165;SDS011;63747;48.042;10.088;2023-02-13T08:14:49;30.48;;;19.50;;
75165;SDS011;63747;48.042;10.088;2023-02-13T08:17:50;55.97;;;20.77;;
75165;SDS011;63747;48.042;10.088;2023-02-13T08:20:51;39.83;;;20.93;;
75165;SDS011;63747;48.042;10.088;2023-02-13T08:23:51;27.50;;;18.67;;
75165;SDS011;63747;48.042;10.088;2023-02-13T08:26:52;29.30;;;17.33;;
75165;SDS011;63747;48.042;10.088;2023-02-13T08:29:53;28.03;;;16.03;;
75165;SDS011;63747;48.042;10.088;2023-02-13T08:32:53;28.43;;;15.93;;
75165;SDS011;63747;48.042;10.088;2023-02-13T08:35:54;39.65;;;17.92;;
75165;SDS011;63747;48.042;10.088;2023-02-13T08:38:55;32.50;;;18.00;;
75165;SDS011;63747;48.042;10.088;2023-02-13T08:41:56;31.47;;;16.30;;
75165;SDS011;63747;48.042;10.088;2023-02-13T08:44:57;21.93;;;15.53;;
75165;SDS011;63747;48.042;10.088;2023-02-13T08:47:58;19.13;;;15.40;;
75165;SDS011;63747;48.042;10.088;2023-02-13T08:54:00;28.45;;;14.50;;
75165;SDS011;63747;48.042;10.088;2023-02-13T08:57:01;50.60;;;16.43;;
75165;SDS011;63747;48.042;10.088;2023-02-13T09:00:02;68.00;;;18.83;;
75165;SDS011;63747;48.042;10.088;2023-02-13T09:03:03;28.70;;;17.13;;
75165;SDS011;63747;48.042;10.088;2023-02-13T09:06:04;44.53;;;17.17;;
75165;SDS011;63747;48.042;10.088;2023-02-13T09:09:05;26.85;;;17.38;;
75165;SDS011;63747;48.042;10.088;2023-02-13T09:12:06;47.27;;;18.60;;
75165;SDS011;63747;48.042;10.088;2023-02-13T09:15:06;40.73;;;18.17;;
75165;SDS011;63747;48.042;10.088;2023-02-13T09:18:07;27.23;;;17.63;;
75165;SDS011;63747;48.042;10.088;2023-02-13T09:21:10;26.10;;;17.57;;
75165;SDS011;63747;48.042;10.088;2023-02-13T09:24:11;43.13;;;17.80;;
75165;SDS011;63747;48.042;10.088;2023-02-13T09:27:12;30.63;;;17.43;;
75165;SDS011;63747;48.042;10.088;2023-02-13T09:30:13;43.70;;;17.83;;
75165;SDS011;63747;48.042;10.088;2023-02-13T09:33:22;36.58;;;20.77;;
75165;SDS011;63747;48.042;10.088;2023-02-13T09:36:23;25.48;;;18.00;;
75165;SDS011;63747;48.042;10.088;2023-02-13T09:39:24;24.43;;;16.93;;
75165;SDS011;63747;48.042;10.088;2023-02-13T09:42:25;21.10;;;15.80;;
75165;SDS011;63747;48.042;10.088;2023-02-13T09:45:30;23.02;;;14.88;;
75165;SDS011;63747;48.042;10.088;2023-02-13T09:48:33;17.95;;;13.65;;
75165;SDS011;63747;48.042;10.088;2023-02-13T09:51:36;16.60;;;13.70;;
75165;SDS011;63747;48.042;10.088;2023-02-13T09:54:38;19.77;;;14.95;;
75165;SDS011;63747;48.042;10.088;2023-02-13T09:57:40;20.00;;;15.03;;
75165;SDS011;63747;48.042;10.088;2023-02-13T10:00:53;17.08;;;13.50;;
75165;SDS011;63747;48.042;10.088;2023-02-13T10:16:57;15.38;;;12.60;;
75165;SDS011;63747;48.042;10.088;2023-02-13T10:20:06;16.30;;;13.20;;
75165;SDS011;63747;48.042;10.088;2023-02-13T10:23:35;15.95;;;12.82;;
75165;SDS011;63747;48.042;10.088;2023-02-13T10:26:43;15.20;;;12.85;;
75165;SDS011;63747;48.042;10.088;2023-02-13T10:36:19;15.10;;;13.15;;
75165;SDS011;63747;48.042;10.088;2023-02-13T10:45:56;14.07;;;11.73;;
75165;SDS011;63747;48.042;10.088;2023-02-13T10:49:03;13.27;;;11.40;;
75165;SDS011;63747;48.042;10.088;2023-02-13T10:59:01;14.43;;;12.00;;
75165;SDS011;63747;48.042;10.088;2023-02-13T11:05:20;14.38;;;11.98;;
75165;SDS011;63747;48.042;10.088;2023-02-13T11:08:34;15.60;;;12.70;;
75165;SDS011;63747;48.042;10.088;2023-02-13T11:11:40;17.15;;;13.77;;
75165;SDS011;63747;48.042;10.088;2023-02-13T11:14:52;15.27;;;13.07;;
75165;SDS011;63747;48.042;10.088;2023-02-13T11:18:08;14.85;;;13.25;;
75165;SDS011;63747;48.042;10.088;2023-02-13T11:21:20;16.40;;;12.80;;
75165;SDS011;63747;48.042;10.088;2023-02-13T11:24:33;14.95;;;12.55;;
75165;SDS011;63747;48.042;10.088;2023-02-13T11:27:35;14.88;;;13.15;;
75165;SDS011;63747;48.042;10.088;2023-02-13T11:30:38;16.45;;;12.45;;
75165;SDS011;63747;48.042;10.088;2023-02-13T11:33:39;13.63;;;11.87;;
75165;SDS011;63747;48.042;10.088;2023-02-13T11:36:41;15.90;;;13.25;;
75165;SDS011;63747;48.042;10.088;2023-02-13T11:39:42;13.90;;;12.40;;
75165;SDS011;63747;48.042;10.088;2023-02-13T11:42:44;15.32;;;13.50;;
75165;SDS011;63747;48.042;10.088;2023-02-13T11:46:11;15.70;;;13.90;;
75165;SDS011;63747;48.042;10.088;2023-02-13T11:49:19;14.27;;;12.73;;
75165;SDS011;63747;48.042;10.088;2023-02-13T11:52:23;16.85;;;13.68;;
75165;SDS011;63747;48.042;10.088;2023-02-13T11:55:30;17.00;;;14.38;;
75165;SDS011;63747;48.042;10.088;2023-02-13T11:58:32;16.83;;;14.27;;
75165;SDS011;63747;48.042;10.088;2023-02-13T12:01:34;17.60;;;15.02;;
75165;SDS011;63747;48.042;10.088;2023-02-13T12:04:35;17.20;;;14.97;;
75165;SDS011;63747;48.042;10.088;2023-02-13T12:07:35;17.17;;;13.70;;
75165;SDS011;63747;48.042;10.088;2023-02-13T12:10:36;15.10;;;13.18;;
75165;SDS011;63747;48.042;10.088;2023-02-13T12:13:37;14.13;;;12.70;;
75165;SDS011;63747;48.042;10.088;2023-02-13T12:16:43;16.50;;;14.00;;
75165;SDS011;63747;48.042;10.088;2023-02-13T12:19:49;14.15;;;12.52;;
75165;SDS011;63747;48.042;10.088;2023-02-13T12:32:18;25.77;;;21.15;;
75165;SDS011;63747;48.042;10.088;2023-02-13T12:45:36;17.02;;;13.63;;
75165;SDS011;63747;48.042;10.088;2023-02-13T12:52:16;16.65;;;14.27;;
75165;SDS011;63747;48.042;10.088;2023-02-13T12:58:48;17.00;;;14.57;;
75165;SDS011;63747;48.042;10.088;2023-02-13T13:05:27;16.98;;;14.68;;
75165;SDS011;63747;48.042;10.088;2023-02-13T13:09:01;18.52;;;14.77;;
75165;SDS011;63747;48.042;10.088;2023-02-13T13:12:12;20.33;;;15.05;;
75165;SDS011;63747;48.042;10.088;2023-02-13T13:15:29;17.63;;;15.15;;
75165;SDS011;63747;48.042;10.088;2023-02-13T13:28:41;19.83;;;15.95;;
75165;SDS011;63747;48.042;10.088;2023-02-13T13:31:51;20.48;;;16.02;;
75165;SDS011;63747;48.042;10.088;2023-02-13T13:34:55;22.70;;;17.52;;
75165;SDS011;63747;48.042;10.088;2023-02-13T13:38:00;21.98;;;17.15;;
75165;SDS011;63747;48.042;10.088;2023-02-13T13:45:05;21.88;;;17.58;;
75165;SDS011;63747;48.042;10.088;2023-02-13T13:51:19;22.35;;;17.48;;
75165;SDS011;63747;48.042;10.088;2023-02-13T13:54:21;22.40;;;17.83;;
75165;SDS011;63747;48.042;10.088;2023-02-13T13:57:24;18.83;;;16.35;;
75165;SDS011;63747;48.042;10.088;2023-02-13T14:00:40;19.15;;;16.00;;
75165;SDS011;63747;48.042;10.088;2023-02-13T14:03:42;21.00;;;16.83;;
75165;SDS011;63747;48.042;10.088;2023-02-13T14:09:44;20.13;;;17.20;;
75165;SDS011;63747;48.042;10.088;2023-02-13T14:12:46;21.60;;;17.00;;
75165;SDS011;63747;48.042;10.088;2023-02-13T14:15:51;21.40;;;17.80;;
75165;SDS011;63747;48.042;10.088;2023-02-13T14:18:53;21.33;;;17.35;;
75165;SDS011;63747;48.042;10.088;2023-02-13T14:21:55;21.57;;;17.77;;
75165;SDS011;63747;48.042;10.088;2023-02-13T14:25:24;21.55;;;18.05;;
75165;SDS011;63747;48.042;10.088;2023-02-13T14:28:27;22.05;;;17.45;;
75165;SDS011;63747;48.042;10.088;2023-02-13T14:31:32;21.43;;;17.60;;
75165;SDS011;63747;48.042;10.088;2023-02-13T14:34:36;21.05;;;17.05;;
75165;SDS011;63747;48.042;10.088;2023-02-13T14:37:46;20.95;;;17.17;;
75165;SDS011;63747;48.042;10.088;2023-02-13T14:40:51;24.30;;;18.33;;
75165;SDS011;63747;48.042;10.088;2023-02-13T14:43:53;21.27;;;18.33;;
75165;SDS011;63747;48.042;10.088;2023-02-13T14:46:54;21.88;;;17.70;;
75165;SDS011;63747;48.042;10.088;2023-02-13T14:49:57;24.83;;;19.70;;
75165;SDS011;63747;48.042;10.088;2023-02-13T14:53:02;22.13;;;17.23;;
75165;SDS011;63747;48.042;10.088;2023-02-13T14:56:10;24.38;;;18.27;;
75165;SDS011;63747;48.042;10.088;2023-02-13T14:59:17;24.60;;;18.63;;
75165;SDS011;63747;48.042;10.088;2023-02-13T15:02:32;22.40;;;17.80;;
75165;SDS011;63747;48.042;10.088;2023-02-13T15:05:37;20.70;;;17.08;;
75165;SDS011;63747;48.042;10.088;2023-02-13T15:08:43;23.47;;;18.63;;
75165;SDS011;63747;48.042;10.088;2023-02-13T15:11:48;23.42;;;18.90;;
75165;SDS011;63747;48.042;10.088;2023-02-13T15:14:49;19.87;;;17.07;;
75165;SDS011;63747;48.042;10.088;2023-02-13T15:17:49;22.50;;;17.60;;
75165;SDS011;63747;48.042;10.088;2023-02-13T15:20:57;21.77;;;17.63;;
75165;SDS011;63747;48.042;10.088;2023-02-13T15:23:59;22.40;;;18.40;;
75165;SDS011;63747;48.042;10.088;2023-02-13T15:27:01;22.53;;;18.00;;
75165;SDS011;63747;48.042;10.088;2023-02-13T15:33:15;23.35;;;18.40;;
75165;SDS011;63747;48.042;10.088;2023-02-13T15:36:19;25.50;;;19.35;;
75165;SDS011;63747;48.042;10.088;2023-02-13T15:39:23;24.25;;;18.48;;
75165;SDS011;63747;48.042;10.088;2023-02-13T15:42:38;26.35;;;17.92;;
75165;SDS011;63747;48.042;10.088;2023-02-13T15:45:40;25.33;;;19.20;;
75165;SDS011;63747;48.042;10.088;2023-02-13T15:48:43;28.85;;;21.08;;
75165;SDS011;63747;48.042;10.088;2023-02-13T15:51:45;24.10;;;18.95;;
75165;SDS011;63747;48.042;10.088;2023-02-13T15:54:48;28.80;;;20.50;;
75165;SDS011;63747;48.042;10.088;2023-02-13T15:57:52;32.45;;;20.83;;
75165;SDS011;63747;48.042;10.088;2023-02-13T16:00:55;29.77;;;21.13;;
75165;SDS011;63747;48.042;10.088;2023-02-13T16:04:04;26.15;;;20.08;;
75165;SDS011;63747;48.042;10.088;2023-02-13T16:07:09;27.45;;;21.30;;
75165;SDS011;63747;48.042;10.088;2023-02-13T16:10:31;29.67;;;21.80;;
75165;SDS011;63747;48.042;10.088;2023-02-13T16:13:35;31.20;;;20.70;;
75165;SDS011;63747;48.042;10.088;2023-02-13T16:20:06;29.70;;;20.52;;
75165;SDS011;63747;48.042;10.088;2023-02-13T16:23:22;30.05;;;21.30;;
75165;SDS011;63747;48.042;10.088;2023-02-13T16:26:23;30.03;;;21.73;;
75165;SDS011;63747;48.042;10.088;2023-02-13T16:29:24;30.27;;;21.90;;
75165;SDS011;63747;48.042;10.088;2023-02-13T16:32:33;28.55;;;21.75;;
75165;SDS011;63747;48.042;10.088;2023-02-13T16:38:48;27.42;;;19.85;;
75165;SDS011;63747;48.042;10.088;2023-02-13T16:41:49;27.90;;;19.70;;
75165;SDS011;63747;48.042;10.088;2023-02-13T16:44:50;26.02;;;18.73;;
75165;SDS011;63747;48.042;10.088;2023-02-13T16:48:21;25.17;;;18.40;;
75165;SDS011;63747;48.042;10.088;2023-02-13T16:51:30;28.87;;;20.43;;
75165;SDS011;63747;48.042;10.088;2023-02-13T16:57:46;28.65;;;20.30;;
75165;SDS011;63747;48.042;10.088;2023-02-13T17:00:50;32.03;;;21.60;;
75165;SDS011;63747;48.042;10.088;2023-02-13T17:03:52;31.58;;;21.65;;
75165;SDS011;63747;48.042;10.088;2023-02-13T17:06:54;27.90;;;20.30;;
75165;SDS011;63747;48.042;10.088;2023-02-13T17:09:57;32.28;;;21.98;;
75165;SDS011;63747;48.042;10.088;2023-02-13T17:13:21;29.75;;;20.50;;
75165;SDS011;63747;48.042;10.088;2023-02-13T17:16:23;25.90;;;18.25;;
75165;SDS011;63747;48.042;10.088;2023-02-13T17:19:24;32.25;;;20.70;;
75165;SDS011;63747;48.042;10.088;2023-02-13T17:22:27;29.23;;;19.30;;
75165;SDS011;63747;48.042;10.088;2023-02-13T17:25:33;31.92;;;21.25;;
75165;SDS011;63747;48.042;10.088;2023-02-13T17:28:36;33.08;;;21.73;;
75165;SDS011;63747;48.042;10.088;2023-02-13T17:31:37;29.63;;;20.60;;
75165;SDS011;63747;48.042;10.088;2023-02-13T17:34:38;35.97;;;22.10;;
75165;SDS011;63747;48.042;10.088;2023-02-13T17:37:39;29.80;;;21.07;;
75165;SDS011;63747;48.042;10.088;2023-02-13T17:40:41;30.55;;;22.17;;
75165;SDS011;63747;48.042;10.088;2023-02-13T17:43:43;28.50;;;21.23;;
75165;SDS011;63747;48.042;10.088;2023-02-13T17:46:43;30.47;;;21.47;;
75165;SDS011;63747;48.042;10.088;2023-02-13T17:49:44;39.23;;;26.70;;
75165;SDS011;63747;48.042;10.088;2023-02-13T17:52:46;35.53;;;24.02;;
75165;SDS011;63747;48.042;10.088;2023-02-13T17:55:48;29.50;;;22.52;;
75165;SDS011;63747;48.042;10.088;2023-02-13T17:58:49;35.30;;;25.58;;
75165;SDS011;63747;48.042;10.088;2023-02-13T18:01:50;35.17;;;24.83;;
75165;SDS011;63747;48.042;10.088;2023-02-13T18:04:51;33.35;;;23.55;;
75165;SDS011;63747;48.042;10.088;2023-02-13T18:07:52;37.73;;;24.33;;
75165;SDS011;63747;48.042;10.088;2023-02-13T18:10:53;38.67;;;25.38;;
75165;SDS011;63747;48.042;10.088;2023-02-13T18:13:54;37.83;;;26.70;;
75165;SDS011;63747;48.042;10.088;2023-02-13T18:16:54;43.13;;;28.63;;
75165;SDS011;63747;48.042;10.088;2023-02-13T18:19:55;46.43;;;28.87;;
75165;SDS011;63747;48.042;10.088;2023-02-13T18:22:56;48.78;;;31.48;;
75165;SDS011;63747;48.042;10.088;2023-02-13T18:26:04;58.93;;;38.43;;
75165;SDS011;63747;48.042;10.088;2023-02-13T18:29:06;45.03;;;28.85;;
75165;SDS011;63747;48.042;10.088;2023-02-13T18:32:07;40.40;;;28.17;;
75165;SDS011;63747;48.042;10.088;2023-02-13T18:35:09;46.67;;;30.65;;
75165;SDS011;63747;48.042;10.088;2023-02-13T18:38:10;41.83;;;27.35;;
75165;SDS011;63747;48.042;10.088;2023-02-13T18:41:11;46.67;;;28.77;;
75165;SDS011;63747;48.042;10.088;2023-02-13T18:44:11;39.87;;;27.07;;
75165;SDS011;63747;48.042;10.088;2023-02-13T18:47:12;42.07;;;28.47;;
75165;SDS011;63747;48.042;10.088;2023-02-13T18:50:13;42.40;;;28.07;;
75165;SDS011;63747;48.042;10.088;2023-02-13T18:53:14;53.13;;;27.10;;
75165;SDS011;63747;48.042;10.088;2023-02-13T18:56:15;39.27;;;27.10;;
75165;SDS011;63747;48.042;10.088;2023-02-13T18:59:16;45.33;;;29.20;;
75165;SDS011;63747;48.042;10.088;2023-02-13T19:02:17;50.72;;;30.35;;
75165;SDS011;63747;48.042;10.088;2023-02-13T19:05:18;57.20;;;32.00;;
75165;SDS011;63747;48.042;10.088;2023-02-13T19:08:19;50.77;;;30.67;;
75165;SDS011;63747;48.042;10.088;2023-02-13T19:11:20;67.67;;;31.10;;
75165;SDS011;63747;48.042;10.088;2023-02-13T19:14:23;55.88;;;31.20;;
75165;SDS011;63747;48.042;10.088;2023-02-13T19:17:23;70.83;;;31.17;;
75165;SDS011;63747;48.042;10.088;2023-02-13T19:20:24;54.27;;;31.33;;
75165;SDS011;63747;48.042;10.088;2023-02-13T19:23:25;63.00;;;32.00;;
75165;SDS011;63747;48.042;10.088;2023-02-13T19:26:26;162.80;;;32.50;;
75165;SDS011;63747;48.042;10.088;2023-02-13T19:29:27;298.33;;;34.85;;
75165;SDS011;63747;48.042;10.088;2023-02-13T19:32:27;129.27;;;31.67;;
75165;SDS011;63747;48.042;10.088;2023-02-13T19:35:28;197.20;;;30.77;;
75165;SDS011;63747;48.042;10.088;2023-02-13T19:38:29;102.47;;;31.23;;
75165;SDS011;63747;48.042;10.088;2023-02-13T19:41:30;62.60;;;30.33;;
75165;SDS011;63747;48.042;10.088;2023-02-13T19:44:31;389.20;;;36.53;;
75165;SDS011;63747;48.042;10.088;2023-02-13T19:47:32;88.03;;;29.07;;
75165;SDS011;63747;48.042;10.088;2023-02-13T19:50:33;148.17;;;46.53;;
75165;SDS011;63747;48.042;10.088;2023-02-13T19:53:34;98.60;;;41.33;;
75165;SDS011;63747;48.042;10.088;2023-02-13T19:56:36;215.05;;;48.05;;
75165;SDS011;63747;48.042;10.088;2023-02-13T19:59:37;255.70;;;38.70;;
75165;SDS011;63747;48.042;10.088;2023-02-13T20:02:39;175.53;;;32.97;;
75165;SDS011;63747;48.042;10.088;2023-02-13T20:05:40;525.88;;;38.38;;
75165;SDS011;63747;48.042;10.088;2023-02-13T20:08:41;329.80;;;35.37;;
75165;SDS011;63747;48.042;10.088;2023-02-13T20:11:42;640.97;;;44.70;;
75165;SDS011;63747;48.042;10.088;2023-02-13T20:14:44;357.15;;;31.65;;
75165;SDS011;63747;48.042;10.088;2023-02-13T20:17:45;373.57;;;33.17;;